createdAt,value
2023-03-24T18:11:01.606Z,20.40
2023-03-24T18:11:12.665Z,19.90
2023-03-24T18:11:22.899Z,20.60
2023-03-24T18:11:32.922Z,20.80
2023-03-24T18:11:43.368Z,19.50
2023-03-24T18:11:53.141Z,18.90
2023-03-24T18:12:03.122Z,21.80
2023-03-24T18:12:13.463Z,23.70
2023-03-24T18:12:23.731Z,24.30
2023-03-24T18:12:34.878Z,29.30
2023-03-24T18:12:44.168Z,30.20
2023-03-24T18:12:55.826Z,37.90
2023-03-24T18:13:04.839Z,37.10
2023-03-24T18:13:14.253Z,33.30
2023-03-24T18:13:24.173Z,23.50
2023-03-24T18:13:44.379Z,20.00
2023-03-24T18:13:54.719Z,23.90
2023-03-24T18:14:04.888Z,23.40
2023-03-24T18:14:14.855Z,28.30
2023-03-24T18:14:25.878Z,25.90
2023-03-24T18:14:35.762Z,26.60
2023-03-24T18:14:45.351Z,24.30
2023-03-24T18:14:55.805Z,22.60
2023-03-24T18:15:05.462Z,21.10
2023-03-24T18:15:15.546Z,19.90
2023-03-24T18:15:25.940Z,18.90
2023-03-24T18:15:36.262Z,18.50
2023-03-24T18:15:45.926Z,19.10
2023-03-24T18:15:55.988Z,21.00
2023-03-24T18:16:17.682Z,21.20
2023-03-24T18:16:27.253Z,22.20
2023-03-24T18:16:33.180Z,23.90
2023-03-24T18:16:43.358Z,21.70
2023-03-24T18:16:53.399Z,22.80
2023-03-24T18:17:04.826Z,20.30
2023-03-24T18:17:15.140Z,19.70
2023-03-24T18:17:33.823Z,20.90
2023-03-24T18:17:43.921Z,21.90
2023-03-24T18:17:54.870Z,21.10
2023-03-24T18:18:04.244Z,31.00
2023-03-24T18:18:14.274Z,30.80
2023-03-24T18:18:24.631Z,29.90
2023-03-24T18:18:35.599Z,19.30
2023-03-24T18:18:45.692Z,18.10
2023-03-24T18:18:55.008Z,18.60
2023-03-24T18:19:05.082Z,20.10
2023-03-24T18:19:15.168Z,22.50
2023-03-24T18:19:25.223Z,23.40
2023-03-24T18:19:45.641Z,20.80
2023-03-24T18:19:56.029Z,22.10
2023-03-24T18:20:05.760Z,22.60
2023-03-24T18:20:15.917Z,23.40
2023-03-24T18:20:26.140Z,23.30
2023-03-24T18:20:36.211Z,25.10
2023-03-24T18:20:47.020Z,26.60
2023-03-24T18:20:56.409Z,27.90
2023-03-24T18:21:06.747Z,34.30
2023-03-24T18:21:17.479Z,35.80
2023-03-24T18:21:26.703Z,37.80
2023-03-24T18:21:37.080Z,33.10
2023-03-24T18:21:47.108Z,31.40
2023-03-24T18:21:57.308Z,30.60
2023-03-24T18:22:07.337Z,35.20
2023-03-24T18:22:27.664Z,34.70
2023-03-24T18:22:37.749Z,31.30
2023-03-24T18:22:47.656Z,34.50
2023-03-24T18:22:57.966Z,33.70
2023-03-24T18:23:08.230Z,36.60
2023-03-24T18:23:18.081Z,40.10
2023-03-24T18:23:28.298Z,41.60
2023-03-24T18:23:38.392Z,38.10
2023-03-24T18:23:48.435Z,33.60
2023-03-24T18:23:58.548Z,30.80
2023-03-24T18:24:08.827Z,32.20
2023-03-24T18:24:18.920Z,32.50
2023-03-24T18:24:28.927Z,32.20
2023-03-24T18:24:39.195Z,34.80
2023-03-24T18:24:49.223Z,33.50
2023-03-24T18:25:00.646Z,35.90
2023-03-24T18:25:09.566Z,29.70
2023-03-24T18:25:20.429Z,29.50
2023-03-24T18:25:29.866Z,28.70
2023-03-24T18:25:39.929Z,32.70
2023-03-24T18:25:49.971Z,34.00
2023-03-24T18:26:10.254Z,36.60
2023-03-24T18:26:20.432Z,34.60
2023-03-24T18:26:30.576Z,36.30
2023-03-24T18:26:40.621Z,33.20
2023-03-24T18:26:50.841Z,33.40
2023-03-24T18:27:00.974Z,26.50
2023-03-24T18:27:11.039Z,26.00
2023-03-24T18:27:21.152Z,28.70
2023-03-24T18:27:31.319Z,35.10
2023-03-24T18:27:41.413Z,41.50
2023-03-24T18:27:51.499Z,42.80
2023-03-24T18:28:01.633Z,36.80
2023-03-24T18:28:11.743Z,28.00
2023-03-24T18:28:21.750Z,25.00
2023-03-24T18:28:32.089Z,26.90
2023-03-24T18:28:42.400Z,28.40
2023-03-24T18:28:52.855Z,27.50
2023-03-24T18:29:02.417Z,31.30
2023-03-24T18:29:12.507Z,31.60
2023-03-24T18:29:22.722Z,31.30
2023-03-24T18:29:33.333Z,30.80
2023-03-24T18:29:42.926Z,35.00
2023-03-24T18:29:54.013Z,36.10
2023-03-24T18:30:03.200Z,32.40
2023-03-24T18:30:13.227Z,27.00
2023-03-24T18:30:23.390Z,24.00
2023-03-24T18:30:33.456Z,24.60
2023-03-24T18:30:43.584Z,24.20
2023-03-24T18:32:18.271Z,23.10
2023-03-24T18:32:32.098Z,24.80
2023-03-24T18:32:39.472Z,24.10
2023-03-24T18:32:49.324Z,23.70
2023-03-24T18:32:59.836Z,21.70
2023-03-24T18:33:09.729Z,21.00
2023-03-24T18:33:20.382Z,19.50
2023-03-24T18:33:40.034Z,25.60
2023-03-24T18:33:51.054Z,27.60
2023-03-24T18:34:01.169Z,30.30
2023-03-24T18:34:10.652Z,29.10
2023-03-24T18:34:21.495Z,30.30
2023-03-24T18:34:30.781Z,28.60
2023-03-24T18:34:40.818Z,27.20
2023-03-24T18:34:59.980Z,25.80
2023-03-24T18:35:11.160Z,26.30
2023-03-24T18:35:21.184Z,25.20
2023-03-24T18:35:32.067Z,26.00
2023-03-24T18:35:41.504Z,24.30
2023-03-24T18:35:51.518Z,28.50
2023-03-24T18:36:01.612Z,26.80
2023-03-24T18:36:12.080Z,26.30
2023-03-24T18:36:22.125Z,23.10
2023-03-24T18:36:32.203Z,30.10
2023-03-24T18:36:42.181Z,40.60
2023-03-24T18:36:52.877Z,88.10
2023-03-24T18:37:02.382Z,90.60
2023-03-24T18:37:12.455Z,85.10
2023-03-24T18:37:22.664Z,35.60
2023-03-24T18:37:33.198Z,27.30
2023-03-24T18:37:42.859Z,23.90
2023-03-24T18:37:53.108Z,26.90
2023-03-24T18:38:04.164Z,27.50
2023-03-24T18:38:13.438Z,24.80
2023-03-24T18:38:23.308Z,23.10
2023-03-24T18:38:33.478Z,23.70
2023-03-24T18:38:43.487Z,23.40
2023-03-24T18:38:53.728Z,23.90
2023-03-24T18:39:13.875Z,26.30
2023-03-24T18:39:24.061Z,25.80
2023-03-24T18:39:34.285Z,29.20
2023-03-24T18:39:44.272Z,27.70
2023-03-24T18:39:54.491Z,26.90
2023-03-24T18:40:04.623Z,25.00
2023-03-24T18:40:14.785Z,50.50
2023-03-24T18:40:24.929Z,109.30
2023-03-24T18:40:35.075Z,126.70
2023-03-24T18:40:45.150Z,91.50
2023-03-24T18:40:55.320Z,39.50
2023-03-24T18:41:05.620Z,27.00
2023-03-24T18:41:16.652Z,28.30
2023-03-24T18:41:25.747Z,31.60
2023-03-24T18:41:35.669Z,30.10
2023-03-24T18:41:45.824Z,29.20
2023-03-24T18:41:55.957Z,28.60
2023-03-24T18:42:05.934Z,31.20
2023-03-24T18:42:26.554Z,36.60
2023-03-24T18:42:36.736Z,35.70
2023-03-24T18:42:46.632Z,33.90
2023-03-24T18:42:56.748Z,30.60
2023-03-24T18:43:06.968Z,30.20
2023-03-24T18:43:17.006Z,30.10
2023-03-24T18:43:27.024Z,25.80
2023-03-24T18:43:37.286Z,21.70
2023-03-24T18:43:47.351Z,20.80
2023-03-24T18:43:57.397Z,23.30
2023-03-24T18:44:08.274Z,22.20
2023-03-24T18:44:17.709Z,20.70
2023-03-24T18:44:27.724Z,21.80
2023-03-24T18:44:38.013Z,21.10
2023-03-24T18:44:48.107Z,23.50
2023-03-24T18:44:58.610Z,23.40
2023-03-24T18:45:19.478Z,26.60
2023-03-24T18:45:29.045Z,26.40
2023-03-24T18:45:38.571Z,24.90
2023-03-24T18:45:48.844Z,24.90
2023-03-24T18:45:58.869Z,25.10
2023-03-24T18:46:08.950Z,24.20
2023-03-24T18:46:29.157Z,29.90
2023-03-24T18:46:40.252Z,33.50
2023-03-24T18:46:49.643Z,31.90
2023-03-24T18:46:59.513Z,35.30
2023-03-24T18:47:09.723Z,34.30
2023-03-24T18:47:19.804Z,34.10
2023-03-24T18:47:30.034Z,29.10
2023-03-24T18:47:50.775Z,49.30
2023-03-24T18:48:00.489Z,67.30
2023-03-24T18:48:10.584Z,73.30
2023-03-24T18:48:23.878Z,69.50
2023-03-24T18:48:30.814Z,58.70
2023-03-24T18:48:40.938Z,52.30
2023-03-24T18:48:51.774Z,50.70
2023-03-24T18:49:01.005Z,50.80
2023-03-24T18:49:11.148Z,51.50
2023-03-24T18:49:31.634Z,51.80
2023-03-24T18:49:41.579Z,46.80
2023-03-24T18:49:51.733Z,40.40
2023-03-24T18:50:01.722Z,34.70
2023-03-24T18:50:12.646Z,31.40
2023-03-24T18:50:21.976Z,29.90
2023-03-24T18:50:31.989Z,35.10
2023-03-24T18:50:42.086Z,37.80
2023-03-24T18:50:52.415Z,42.80
2023-03-24T18:51:02.498Z,39.60
2023-03-24T18:51:22.541Z,29.60
2023-03-24T18:51:32.843Z,25.80
2023-03-24T18:51:43.050Z,26.60
2023-03-24T18:51:53.096Z,25.80
2023-03-24T18:52:03.280Z,26.30
2023-03-24T18:52:13.154Z,25.50
2023-03-24T18:52:23.297Z,26.10
2023-03-24T18:55:26.306Z,31.30
2023-03-24T18:55:37.449Z,31.70
2023-03-24T18:55:48.489Z,27.40
2023-03-24T18:55:57.717Z,29.40
2023-03-24T18:56:07.728Z,30.60
2023-03-24T18:56:17.836Z,31.40
2023-03-24T18:56:28.036Z,27.00
2023-03-24T18:56:39.114Z,22.60
2023-03-24T18:56:58.346Z,27.50
2023-03-24T18:57:08.440Z,32.20
2023-03-24T18:57:18.663Z,47.90
2023-03-24T18:57:28.642Z,79.60
2023-03-24T18:57:38.904Z,83.60
2023-03-24T18:57:48.921Z,66.70
2023-03-24T18:58:00.106Z,37.30
2023-03-24T18:58:09.336Z,32.90
2023-03-24T18:58:19.931Z,34.30
2023-03-24T18:58:29.659Z,36.80
2023-03-24T18:58:40.716Z,39.00
2023-03-24T18:58:51.590Z,39.10
2023-03-24T18:59:10.165Z,42.50
2023-03-24T18:59:20.308Z,40.60
2023-03-24T18:59:31.143Z,33.30
2023-03-24T18:59:40.408Z,29.90
2023-03-24T18:59:50.563Z,27.90
2023-03-24T19:00:00.806Z,28.10
2023-03-24T19:00:10.861Z,29.30
2023-03-24T19:00:20.998Z,30.30
2023-03-24T19:00:41.685Z,28.30
2023-03-24T19:00:51.318Z,30.50
2023-03-24T19:01:02.747Z,31.90
2023-03-24T19:01:11.688Z,34.80
2023-03-24T19:01:21.831Z,33.80
2023-03-24T19:01:31.895Z,36.10
2023-03-24T19:01:42.096Z,35.90
2023-03-24T19:01:52.158Z,38.40
2023-03-24T19:02:12.501Z,36.70
2023-03-24T19:02:23.439Z,35.50
2023-03-24T19:02:32.577Z,41.30
2023-03-24T19:02:42.805Z,43.70
2023-03-24T19:02:53.032Z,56.60
2023-03-24T19:03:03.043Z,53.20
2023-03-24T19:03:13.298Z,50.40
2023-03-24T19:03:32.429Z,44.60
2023-03-24T19:03:43.528Z,43.60
2023-03-24T19:03:53.631Z,46.40
2023-03-24T19:04:04.526Z,39.90
2023-03-24T19:04:13.851Z,39.70
2023-03-24T19:04:24.001Z,35.70
2023-03-24T19:04:34.199Z,30.70
2023-03-24T19:04:44.377Z,28.30
2023-03-24T19:04:55.067Z,32.50
2023-03-24T19:05:04.515Z,35.30
2023-03-24T19:05:14.706Z,40.80
2023-03-24T19:05:24.878Z,35.70
2023-03-24T19:05:34.985Z,34.50
2023-03-24T19:05:45.250Z,31.20
2023-03-24T19:05:56.185Z,33.10
2023-03-24T19:06:05.451Z,34.30
2023-03-24T19:06:15.502Z,31.90
2023-03-24T19:06:25.773Z,28.50
2023-03-24T19:06:35.809Z,26.60
2023-03-24T19:06:45.961Z,27.10
2023-03-24T19:06:56.703Z,28.90
2023-03-24T19:07:06.187Z,28.90
2023-03-24T19:07:16.360Z,26.00
2023-03-24T19:07:26.676Z,25.70
2023-03-24T19:07:36.710Z,26.00
2023-03-24T19:07:46.772Z,27.10
2023-03-24T19:07:56.847Z,25.60
2023-03-24T19:08:07.322Z,27.40
2023-03-24T19:08:19.851Z,27.60
2023-03-24T19:08:27.313Z,29.50
2023-03-24T19:08:37.673Z,31.50
2023-03-24T19:08:48.636Z,34.40
2023-03-24T19:08:57.671Z,35.20
2023-03-24T19:09:07.725Z,33.30
2023-03-24T19:09:27.049Z,32.80
2023-03-24T19:09:38.423Z,33.90
2023-03-24T19:09:48.372Z,34.60
2023-03-24T19:09:58.692Z,40.50
2023-03-24T19:10:08.558Z,40.30
2023-03-24T19:10:19.609Z,34.10
2023-03-24T19:10:28.914Z,32.30
2023-03-24T19:10:39.239Z,32.20
2023-03-24T19:10:49.699Z,29.70
2023-03-24T19:10:59.273Z,31.90
2023-03-24T19:11:09.366Z,33.10
2023-03-24T19:11:20.560Z,33.10
2023-03-24T19:11:29.766Z,32.40
2023-03-24T19:11:41.471Z,38.10
2023-03-24T19:11:49.798Z,39.70
2023-03-24T19:12:00.258Z,37.20
2023-03-24T19:12:10.299Z,36.10
2023-03-24T19:12:30.452Z,33.40
2023-03-24T19:12:40.475Z,30.70
2023-03-24T19:12:50.647Z,30.60
2023-03-24T19:13:00.899Z,32.40
